KPDK/PDK METAR and TAF weather

Enter ICAO airport designator
Station Type Date Time Source
KPDK METAR 2021/01/20 21:53 UTC NOAA

KPDK 202153Z 27008KT 10SM CLR 11/M04 A3020 RMK AO2 SLP230 T01061039


Station Type Date Time Source
KPDK Decoded METAR 2021/01/20 21:53 UTC NOAA

ATLANTA DE KALB-PEACHTREE, GA, United States (KPDK) 33-53N 084-18W 302M
Jan 20, 2021 - 04:53 PM EST / 2021.01.20 2153 UTC
Wind: from the W (270 degrees) at 9 MPH (8 KT):0
Visibility: 10 mile(s):0
Sky conditions: clear
Temperature: 51.1 F (10.6 C)
Dew Point: 25.0 F (-3.9 C)
Relative Humidity: 35%
Pressure (altimeter): 30.2 in. Hg (1022 hPa)
ob: KPDK 202153Z 27008KT 10SM CLR 11/M04 A3020 RMK AO2 SLP230 T01061039
cycle: 22

Station Type Date Time Source
KPDK TAF 2021/01/20 18:42 UTC NOAA

TAF KPDK 201739Z 2018/2118 30011G18KT P6SM FEW250
FM202300 29006KT P6SM BKN250
FM210700 26004KT P6SM BKN070
FM211000 26004KT P6SM VCSH BKN040
FM211200 26004KT 5SM -RA BR OVC025
FM211500 25006KT 2SM -RA BR OVC008

Example: see airport list